DIA weather

Doha International Airport
Doha, Ad Dawhah Municipality, Qatar

Public forecast

Using degrees Celsius for public forecast. Weather courtesy of forecast.io.

Current aviation weather report (METAR) for Doha International Airport

Retrieved 2019/10/17 01:30 UTC (0 seconds ago):

OTBD 170130Z 23003KT 210V280 5000 HZ NSC 29/24 Q1013 NOSIG

Aviation forecast (TAF) for Doha International Airport

Retrieved 2019-10-17 00:00 UTC (1 hour ago):

TAF OTBD 162302Z 1700/1806 30004KT 9000 NSC PROB30 TEMPO 1700/1702 5000 HZ BECMG 1708/1710 05006KT BECMG 1719/1721 14003KT BECMG 1723/1801 29003KT